Waynesburg, PA

4:52 AM EDT on April 21, 2015 (GMT -0400)
Shadyside, Franklin Twp | | Change Station
CLOSE
Current Station
Personal Weather Station
Location: Waynesburg, PA
Elevation: 1099 ft
Nearby Weather Stations

Elev 1099 ft 39.93 °N, 80.17 °W | Updated 1 minute ago

Overcast
Overcast
46.5 °F
Feels Like 46 °F
N
2.0
Wind Variable Wind from NNW
Gusts 4.0 mph

Today
High -- | Low -- °F
--% Chance of Precip.
Yesterday
High -- | Low -- °F
Precip. -- in
6:34 AM 8:04 PM
Waxing Crescent, 9% visible
Pressure 29.74 in
Visibility 10.0 miles
Clouds Few 3500 ft
Scattered Clouds 4400 ft
Overcast 7000 ft
Windchill 46 °F
Dew Point 38 °F
Humidity 73%
Rainfall 0.00 in
Snow Depth Not available.
UV 0 out of 12
Pollen 4.90 out of 12
Air Quality Not available.
Flu Activity Sporadic
METAR KAFJ 210835Z AUTO 26006KT 10SM FEW035 SCT044 OVC070 08/01 A2974 RMK AO1

More Conditions Fewer Conditions

Pressure 29.74 in
Visibility 10.0 miles
Clouds Few 3500 ft
Scattered Clouds 4400 ft
Overcast 7000 ft
Windchill 46 °F
Dew Point 38 °F
Humidity 73%
Rainfall 0.00 in
Snow Depth Not available.
UV 0 out of 12
Pollen 4.90 out of 12
Air Quality Not available.
Flu Activity Sporadic
METAR KAFJ 210835Z AUTO 26006KT 10SM FEW035 SCT044 OVC070 08/01 A2974 RMK AO1

More Conditions Fewer Conditions

10-Day Weather Forecast

Almanac

Astronomy

Apr. 21, 2015 Rise Set
Actual Time
Civil Twilight
Nautical Twilight
Astronomical Twilight
Moon
Length of Visible Light
Length of Day
Tomorrow will be .
, % of the Moon is Illuminated

Today's Extremes

State Highs State Lows

Community

WunderPhotos

Upload Photos

1,815,329 photos uploaded!

WunderBlogs® & News

Nearby

Air Quality

  Air Quality AQ Index Pollutant
Not available.

Snow Depth

Station Depth Elevation

Earthquake Activity

City Distance Mag. Time & Date
Minimum magnitude displayed is 2.5.

Coastal Water Temperatures

Place Temperature

Stations

Nearby Weather Stations

Station Location Temp. Windchill Dew Point Humidity Wind Precip. Elev Updated Type